sensor_id;sensor_type;location;lat;lon;timestamp;temperature;humidity
43320;DHT22;28914;48.722;9.332;2023-06-01T00:03:36;17.50;53.10
43320;DHT22;28914;48.722;9.332;2023-06-01T00:08:56;17.40;53.30
43320;DHT22;28914;48.722;9.332;2023-06-01T00:14:16;17.30;53.30
43320;DHT22;28914;48.722;9.332;2023-06-01T00:19:35;17.20;54.10
43320;DHT22;28914;48.722;9.332;2023-06-01T00:24:54;17.10;53.80
43320;DHT22;28914;48.722;9.332;2023-06-01T00:30:14;17.10;54.30
43320;DHT22;28914;48.722;9.332;2023-06-01T00:35:33;17.00;54.60
43320;DHT22;28914;48.722;9.332;2023-06-01T00:40:52;16.90;54.70
43320;DHT22;28914;48.722;9.332;2023-06-01T00:46:11;16.80;55.00
43320;DHT22;28914;48.722;9.332;2023-06-01T00:51:33;16.70;55.20
43320;DHT22;28914;48.722;9.332;2023-06-01T00:56:53;16.70;55.30
43320;DHT22;28914;48.722;9.332;2023-06-01T01:02:12;16.60;56.10
43320;DHT22;28914;48.722;9.332;2023-06-01T01:07:51;16.50;56.30
43320;DHT22;28914;48.722;9.332;2023-06-01T01:13:36;16.50;56.90
43320;DHT22;28914;48.722;9.332;2023-06-01T01:24:35;16.30;57.10
43320;DHT22;28914;48.722;9.332;2023-06-01T01:30:02;16.30;57.40
43320;DHT22;28914;48.722;9.332;2023-06-01T01:35:26;16.20;57.40
43320;DHT22;28914;48.722;9.332;2023-06-01T01:40:45;16.10;57.60
43320;DHT22;28914;48.722;9.332;2023-06-01T01:46:29;16.10;57.70
43320;DHT22;28914;48.722;9.332;2023-06-01T01:51:55;16.00;58.70
43320;DHT22;28914;48.722;9.332;2023-06-01T01:57:17;16.00;58.60
43320;DHT22;28914;48.722;9.332;2023-06-01T02:02:36;15.90;58.90
43320;DHT22;28914;48.722;9.332;2023-06-01T02:07:56;15.90;58.80
43320;DHT22;28914;48.722;9.332;2023-06-01T02:13:15;15.80;58.80
43320;DHT22;28914;48.722;9.332;2023-06-01T02:18:34;15.80;58.80
43320;DHT22;28914;48.722;9.332;2023-06-01T02:23:57;15.70;59.10
43320;DHT22;28914;48.722;9.332;2023-06-01T02:29:23;15.60;59.00
43320;DHT22;28914;48.722;9.332;2023-06-01T02:34:42;15.60;59.30
43320;DHT22;28914;48.722;9.332;2023-06-01T02:40:01;15.50;59.60
43320;DHT22;28914;48.722;9.332;2023-06-01T02:45:21;15.50;59.70
43320;DHT22;28914;48.722;9.332;2023-06-01T02:50:40;15.40;59.60
43320;DHT22;28914;48.722;9.332;2023-06-01T02:56:00;15.40;59.80
43320;DHT22;28914;48.722;9.332;2023-06-01T03:01:19;15.40;60.00
43320;DHT22;28914;48.722;9.332;2023-06-01T03:06:38;15.30;60.10
43320;DHT22;28914;48.722;9.332;2023-06-01T03:11:59;15.30;60.30
43320;DHT22;28914;48.722;9.332;2023-06-01T03:17:19;15.20;60.50
43320;DHT22;28914;48.722;9.332;2023-06-01T03:22:42;15.20;61.00
43320;DHT22;28914;48.722;9.332;2023-06-01T03:28:01;15.10;61.20
43320;DHT22;28914;48.722;9.332;2023-06-01T03:33:20;15.00;61.70
43320;DHT22;28914;48.722;9.332;2023-06-01T03:38:39;15.00;62.40
43320;DHT22;28914;48.722;9.332;2023-06-01T03:44:00;14.90;62.60
43320;DHT22;28914;48.722;9.332;2023-06-01T03:49:19;14.90;62.40
43320;DHT22;28914;48.722;9.332;2023-06-01T03:54:38;14.90;62.70
43320;DHT22;28914;48.722;9.332;2023-06-01T03:59:57;14.80;63.00
43320;DHT22;28914;48.722;9.332;2023-06-01T04:05:17;14.80;63.10
43320;DHT22;28914;48.722;9.332;2023-06-01T04:10:36;14.80;63.10
43320;DHT22;28914;48.722;9.332;2023-06-01T04:15:55;14.90;64.30
43320;DHT22;28914;48.722;9.332;2023-06-01T04:21:14;14.90;64.10
43320;DHT22;28914;48.722;9.332;2023-06-01T04:26:34;15.00;63.90
43320;DHT22;28914;48.722;9.332;2023-06-01T04:31:55;15.10;64.20
43320;DHT22;28914;48.722;9.332;2023-06-01T04:37:17;15.20;64.80
43320;DHT22;28914;48.722;9.332;2023-06-01T04:42:41;15.30;65.00
43320;DHT22;28914;48.722;9.332;2023-06-01T04:48:01;15.40;65.80
43320;DHT22;28914;48.722;9.332;2023-06-01T04:53:20;15.50;65.80
43320;DHT22;28914;48.722;9.332;2023-06-01T04:58:39;15.60;67.40
43320;DHT22;28914;48.722;9.332;2023-06-01T05:03:58;15.70;65.80
43320;DHT22;28914;48.722;9.332;2023-06-01T05:09:17;15.90;66.00
43320;DHT22;28914;48.722;9.332;2023-06-01T05:14:37;16.10;66.70
43320;DHT22;28914;48.722;9.332;2023-06-01T05:19:56;16.30;66.40
43320;DHT22;28914;48.722;9.332;2023-06-01T05:25:18;16.50;66.20
43320;DHT22;28914;48.722;9.332;2023-06-01T05:30:37;16.70;66.50
43320;DHT22;28914;48.722;9.332;2023-06-01T05:35:56;17.00;65.90
43320;DHT22;28914;48.722;9.332;2023-06-01T05:41:16;17.30;65.70
43320;DHT22;28914;48.722;9.332;2023-06-01T05:46:35;17.70;64.90
43320;DHT22;28914;48.722;9.332;2023-06-01T05:51:54;18.00;64.80
43320;DHT22;28914;48.722;9.332;2023-06-01T05:57:13;18.30;64.00
43320;DHT22;28914;48.722;9.332;2023-06-01T06:02:32;18.60;63.40
43320;DHT22;28914;48.722;9.332;2023-06-01T06:07:51;18.90;62.80
43320;DHT22;28914;48.722;9.332;2023-06-01T06:13:10;19.30;62.30
43320;DHT22;28914;48.722;9.332;2023-06-01T06:18:30;19.70;61.90
43320;DHT22;28914;48.722;9.332;2023-06-01T06:23:49;20.10;61.00
43320;DHT22;28914;48.722;9.332;2023-06-01T06:29:08;20.50;60.20
43320;DHT22;28914;48.722;9.332;2023-06-01T06:34:29;20.90;59.70
43320;DHT22;28914;48.722;9.332;2023-06-01T06:39:54;21.30;59.60
43320;DHT22;28914;48.722;9.332;2023-06-01T06:45:13;21.70;59.30
43320;DHT22;28914;48.722;9.332;2023-06-01T06:50:32;22.20;58.50
43320;DHT22;28914;48.722;9.332;2023-06-01T06:55:51;22.70;57.40
43320;DHT22;28914;48.722;9.332;2023-06-01T07:01:11;23.20;57.10
43320;DHT22;28914;48.722;9.332;2023-06-01T07:06:30;23.70;56.30
43320;DHT22;28914;48.722;9.332;2023-06-01T07:11:49;24.30;55.70
43320;DHT22;28914;48.722;9.332;2023-06-01T07:17:09;25.00;55.20
43320;DHT22;28914;48.722;9.332;2023-06-01T07:22:28;25.80;54.10
43320;DHT22;28914;48.722;9.332;2023-06-01T07:27:47;26.50;52.30
43320;DHT22;28914;48.722;9.332;2023-06-01T07:33:07;27.30;52.00
43320;DHT22;28914;48.722;9.332;2023-06-01T07:38:27;28.10;48.30
43320;DHT22;28914;48.722;9.332;2023-06-01T07:43:46;28.90;49.10
43320;DHT22;28914;48.722;9.332;2023-06-01T07:49:05;29.90;48.60
43320;DHT22;28914;48.722;9.332;2023-06-01T07:54:24;31.20;47.30
43320;DHT22;28914;48.722;9.332;2023-06-01T07:59:44;32.70;45.30
43320;DHT22;28914;48.722;9.332;2023-06-01T08:05:03;34.20;45.60
43320;DHT22;28914;48.722;9.332;2023-06-01T08:10:23;35.60;42.80
43320;DHT22;28914;48.722;9.332;2023-06-01T08:15:42;37.00;41.30
43320;DHT22;28914;48.722;9.332;2023-06-01T08:21:02;38.30;39.50
43320;DHT22;28914;48.722;9.332;2023-06-01T08:26:22;39.70;39.00
43320;DHT22;28914;48.722;9.332;2023-06-01T08:31:41;41.10;36.40
43320;DHT22;28914;48.722;9.332;2023-06-01T08:37:00;42.30;34.60
43320;DHT22;28914;48.722;9.332;2023-06-01T08:48:05;44.40;30.70
43320;DHT22;28914;48.722;9.332;2023-06-01T08:53:28;45.20;30.40
43320;DHT22;28914;48.722;9.332;2023-06-01T08:58:48;46.00;29.50
43320;DHT22;28914;48.722;9.332;2023-06-01T09:04:09;46.80;28.90
43320;DHT22;28914;48.722;9.332;2023-06-01T09:09:28;47.50;28.30
43320;DHT22;28914;48.722;9.332;2023-06-01T09:14:47;48.40;27.70
43320;DHT22;28914;48.722;9.332;2023-06-01T09:20:21;48.90;26.60
43320;DHT22;28914;48.722;9.332;2023-06-01T09:25:41;49.30;25.60
43320;DHT22;28914;48.722;9.332;2023-06-01T09:31:00;49.50;24.90
43320;DHT22;28914;48.722;9.332;2023-06-01T09:36:25;49.90;25.60
43320;DHT22;28914;48.722;9.332;2023-06-01T09:47:12;50.90;24.80
43320;DHT22;28914;48.722;9.332;2023-06-01T09:52:34;51.50;25.10
43320;DHT22;28914;48.722;9.332;2023-06-01T09:58:19;52.20;24.60
43320;DHT22;28914;48.722;9.332;2023-06-01T10:03:41;53.00;24.20
43320;DHT22;28914;48.722;9.332;2023-06-01T10:09:00;53.40;23.30
43320;DHT22;28914;48.722;9.332;2023-06-01T10:14:22;53.70;22.90
43320;DHT22;28914;48.722;9.332;2023-06-01T10:19:42;53.70;22.20
43320;DHT22;28914;48.722;9.332;2023-06-01T10:25:02;53.70;21.60
43320;DHT22;28914;48.722;9.332;2023-06-01T10:30:22;54.00;22.70
43320;DHT22;28914;48.722;9.332;2023-06-01T10:41:27;54.70;22.20
43320;DHT22;28914;48.722;9.332;2023-06-01T10:46:47;55.20;22.00
43320;DHT22;28914;48.722;9.332;2023-06-01T10:57:46;55.40;21.30
43320;DHT22;28914;48.722;9.332;2023-06-01T11:03:05;55.00;21.20
43320;DHT22;28914;48.722;9.332;2023-06-01T11:08:49;54.40;21.40
43320;DHT22;28914;48.722;9.332;2023-06-01T11:14:07;53.60;21.70
43320;DHT22;28914;48.722;9.332;2023-06-01T11:19:27;52.40;21.60
43320;DHT22;28914;48.722;9.332;2023-06-01T11:24:51;50.60;21.40
43320;DHT22;28914;48.722;9.332;2023-06-01T11:30:18;48.40;21.40
43320;DHT22;28914;48.722;9.332;2023-06-01T11:35:38;45.90;21.60
43320;DHT22;28914;48.722;9.332;2023-06-01T11:41:01;43.70;22.60
43320;DHT22;28914;48.722;9.332;2023-06-01T11:46:21;41.80;23.50
43320;DHT22;28914;48.722;9.332;2023-06-01T11:51:41;40.40;24.70
43320;DHT22;28914;48.722;9.332;2023-06-01T11:57:03;39.40;25.50
43320;DHT22;28914;48.722;9.332;2023-06-01T12:02:27;38.50;25.80
43320;DHT22;28914;48.722;9.332;2023-06-01T12:07:48;37.70;26.30
43320;DHT22;28914;48.722;9.332;2023-06-01T12:13:10;36.90;26.80
43320;DHT22;28914;48.722;9.332;2023-06-01T12:18:30;36.30;27.20
43320;DHT22;28914;48.722;9.332;2023-06-01T12:23:49;35.90;27.60
43320;DHT22;28914;48.722;9.332;2023-06-01T12:29:11;35.60;27.80
43320;DHT22;28914;48.722;9.332;2023-06-01T12:34:31;35.40;28.10
43320;DHT22;28914;48.722;9.332;2023-06-01T12:39:54;35.10;28.50
43320;DHT22;28914;48.722;9.332;2023-06-01T12:45:15;35.00;28.60
43320;DHT22;28914;48.722;9.332;2023-06-01T12:50:43;34.90;28.90
43320;DHT22;28914;48.722;9.332;2023-06-01T12:56:03;34.70;29.00
43320;DHT22;28914;48.722;9.332;2023-06-01T13:01:22;34.40;29.30
43320;DHT22;28914;48.722;9.332;2023-06-01T13:06:41;34.10;29.60
43320;DHT22;28914;48.722;9.332;2023-06-01T13:12:01;34.00;29.90
43320;DHT22;28914;48.722;9.332;2023-06-01T13:17:22;33.90;29.80
43320;DHT22;28914;48.722;9.332;2023-06-01T13:22:42;33.80;29.70
43320;DHT22;28914;48.722;9.332;2023-06-01T13:28:02;33.60;29.80
43320;DHT22;28914;48.722;9.332;2023-06-01T13:33:21;33.40;29.90
43320;DHT22;28914;48.722;9.332;2023-06-01T13:38:40;33.30;30.10
43320;DHT22;28914;48.722;9.332;2023-06-01T13:43:59;33.20;30.70
43320;DHT22;28914;48.722;9.332;2023-06-01T13:49:18;33.10;30.90
43320;DHT22;28914;48.722;9.332;2023-06-01T13:54:37;33.00;31.10
43320;DHT22;28914;48.722;9.332;2023-06-01T13:59:56;33.00;31.10
43320;DHT22;28914;48.722;9.332;2023-06-01T14:05:16;32.90;31.10
43320;DHT22;28914;48.722;9.332;2023-06-01T14:10:35;32.80;31.20
43320;DHT22;28914;48.722;9.332;2023-06-01T14:15:54;32.70;30.60
43320;DHT22;28914;48.722;9.332;2023-06-01T14:21:13;32.50;30.80
43320;DHT22;28914;48.722;9.332;2023-06-01T14:26:32;32.40;31.20
43320;DHT22;28914;48.722;9.332;2023-06-01T14:31:51;32.20;31.70
43320;DHT22;28914;48.722;9.332;2023-06-01T14:37:10;32.40;32.00
43320;DHT22;28914;48.722;9.332;2023-06-01T14:42:31;32.50;31.90
43320;DHT22;28914;48.722;9.332;2023-06-01T14:47:50;32.60;32.60
43320;DHT22;28914;48.722;9.332;2023-06-01T14:53:09;32.70;32.20
43320;DHT22;28914;48.722;9.332;2023-06-01T14:58:28;32.80;31.90
43320;DHT22;28914;48.722;9.332;2023-06-01T15:03:47;32.80;32.00
43320;DHT22;28914;48.722;9.332;2023-06-01T15:09:06;32.80;31.80
43320;DHT22;28914;48.722;9.332;2023-06-01T15:14:25;32.80;32.00
43320;DHT22;28914;48.722;9.332;2023-06-01T15:19:44;32.80;31.70
43320;DHT22;28914;48.722;9.332;2023-06-01T15:25:05;32.70;31.80
43320;DHT22;28914;48.722;9.332;2023-06-01T15:30:24;32.60;31.60
43320;DHT22;28914;48.722;9.332;2023-06-01T15:35:44;32.50;31.70
43320;DHT22;28914;48.722;9.332;2023-06-01T15:41:03;32.40;31.60
43320;DHT22;28914;48.722;9.332;2023-06-01T15:46:22;32.20;32.00
43320;DHT22;28914;48.722;9.332;2023-06-01T15:51:41;32.10;32.00
43320;DHT22;28914;48.722;9.332;2023-06-01T15:57:02;32.00;32.00
43320;DHT22;28914;48.722;9.332;2023-06-01T16:02:22;31.80;32.00
43320;DHT22;28914;48.722;9.332;2023-06-01T16:07:41;31.70;32.00
43320;DHT22;28914;48.722;9.332;2023-06-01T16:13:00;31.50;32.10
43320;DHT22;28914;48.722;9.332;2023-06-01T16:18:19;31.30;32.00
43320;DHT22;28914;48.722;9.332;2023-06-01T16:23:38;31.20;32.30
43320;DHT22;28914;48.722;9.332;2023-06-01T16:28:57;31.10;32.60
43320;DHT22;28914;48.722;9.332;2023-06-01T16:34:16;31.00;32.60
43320;DHT22;28914;48.722;9.332;2023-06-01T16:39:35;30.90;32.40
43320;DHT22;28914;48.722;9.332;2023-06-01T16:44:55;30.80;32.40
43320;DHT22;28914;48.722;9.332;2023-06-01T16:50:14;30.70;32.20
43320;DHT22;28914;48.722;9.332;2023-06-01T16:55:33;30.60;32.60
43320;DHT22;28914;48.722;9.332;2023-06-01T17:00:52;30.50;32.70
43320;DHT22;28914;48.722;9.332;2023-06-01T17:06:11;30.40;32.70
43320;DHT22;28914;48.722;9.332;2023-06-01T17:11:30;30.30;32.90
43320;DHT22;28914;48.722;9.332;2023-06-01T17:16:49;30.30;32.60
43320;DHT22;28914;48.722;9.332;2023-06-01T17:22:08;30.10;32.70
43320;DHT22;28914;48.722;9.332;2023-06-01T17:27:29;30.10;32.70
43320;DHT22;28914;48.722;9.332;2023-06-01T17:32:48;30.00;32.50
43320;DHT22;28914;48.722;9.332;2023-06-01T17:38:08;30.00;32.60
43320;DHT22;28914;48.722;9.332;2023-06-01T17:43:27;29.90;32.70
43320;DHT22;28914;48.722;9.332;2023-06-01T17:48:46;29.80;32.80
43320;DHT22;28914;48.722;9.332;2023-06-01T17:54:05;29.80;32.70
43320;DHT22;28914;48.722;9.332;2023-06-01T17:59:24;29.80;32.70
43320;DHT22;28914;48.722;9.332;2023-06-01T18:04:44;29.70;32.70
43320;DHT22;28914;48.722;9.332;2023-06-01T18:10:04;29.60;32.60
43320;DHT22;28914;48.722;9.332;2023-06-01T18:15:23;29.50;32.50
43320;DHT22;28914;48.722;9.332;2023-06-01T18:20:42;29.40;32.30
43320;DHT22;28914;48.722;9.332;2023-06-01T18:26:01;29.30;32.40
43320;DHT22;28914;48.722;9.332;2023-06-01T18:31:21;29.10;32.20
43320;DHT22;28914;48.722;9.332;2023-06-01T18:36:40;29.00;33.00
43320;DHT22;28914;48.722;9.332;2023-06-01T18:42:00;28.80;33.30
43320;DHT22;28914;48.722;9.332;2023-06-01T18:47:19;28.60;34.00
43320;DHT22;28914;48.722;9.332;2023-06-01T18:52:39;28.40;34.90
43320;DHT22;28914;48.722;9.332;2023-06-01T18:58:00;28.20;35.10
43320;DHT22;28914;48.722;9.332;2023-06-01T19:03:19;27.90;35.60
43320;DHT22;28914;48.722;9.332;2023-06-01T19:08:38;27.60;35.90
43320;DHT22;28914;48.722;9.332;2023-06-01T19:13:58;27.40;36.40
43320;DHT22;28914;48.722;9.332;2023-06-01T19:19:21;27.10;36.80
43320;DHT22;28914;48.722;9.332;2023-06-01T19:24:41;26.70;37.10
43320;DHT22;28914;48.722;9.332;2023-06-01T19:30:00;26.40;37.10
43320;DHT22;28914;48.722;9.332;2023-06-01T19:35:19;26.20;38.30
43320;DHT22;28914;48.722;9.332;2023-06-01T19:40:39;25.90;38.30
43320;DHT22;28914;48.722;9.332;2023-06-01T19:46:15;25.60;38.80
43320;DHT22;28914;48.722;9.332;2023-06-01T19:51:35;25.30;39.70
43320;DHT22;28914;48.722;9.332;2023-06-01T19:56:57;25.10;39.90
43320;DHT22;28914;48.722;9.332;2023-06-01T20:02:47;24.90;40.50
43320;DHT22;28914;48.722;9.332;2023-06-01T20:08:09;24.60;41.50
43320;DHT22;28914;48.722;9.332;2023-06-01T20:13:30;24.40;41.60
43320;DHT22;28914;48.722;9.332;2023-06-01T20:18:49;24.20;41.70
43320;DHT22;28914;48.722;9.332;2023-06-01T20:24:08;24.00;42.30
43320;DHT22;28914;48.722;9.332;2023-06-01T20:29:32;23.90;43.20
43320;DHT22;28914;48.722;9.332;2023-06-01T20:34:52;23.70;43.00
43320;DHT22;28914;48.722;9.332;2023-06-01T20:40:13;23.60;43.20
43320;DHT22;28914;48.722;9.332;2023-06-01T20:46:00;23.40;43.50
43320;DHT22;28914;48.722;9.332;2023-06-01T20:51:29;23.20;44.00
43320;DHT22;28914;48.722;9.332;2023-06-01T20:56:57;23.20;44.60
43320;DHT22;28914;48.722;9.332;2023-06-01T21:02:21;23.00;44.90
43320;DHT22;28914;48.722;9.332;2023-06-01T21:07:40;22.90;45.20
43320;DHT22;28914;48.722;9.332;2023-06-01T21:12:59;22.80;45.50
43320;DHT22;28914;48.722;9.332;2023-06-01T21:18:18;22.70;45.60
43320;DHT22;28914;48.722;9.332;2023-06-01T21:23:37;22.60;45.60
43320;DHT22;28914;48.722;9.332;2023-06-01T21:28:56;22.50;45.80
43320;DHT22;28914;48.722;9.332;2023-06-01T21:34:16;22.30;46.20
43320;DHT22;28914;48.722;9.332;2023-06-01T21:39:35;22.20;46.40
43320;DHT22;28914;48.722;9.332;2023-06-01T21:44:54;22.10;47.10
43320;DHT22;28914;48.722;9.332;2023-06-01T21:50:13;22.00;47.90
43320;DHT22;28914;48.722;9.332;2023-06-01T21:55:33;21.90;47.90
43320;DHT22;28914;48.722;9.332;2023-06-01T22:00:52;21.80;48.10
43320;DHT22;28914;48.722;9.332;2023-06-01T22:06:11;21.70;48.10
43320;DHT22;28914;48.722;9.332;2023-06-01T22:11:30;21.60;49.00
43320;DHT22;28914;48.722;9.332;2023-06-01T22:16:49;21.40;49.10
43320;DHT22;28914;48.722;9.332;2023-06-01T22:22:09;21.30;49.30
43320;DHT22;28914;48.722;9.332;2023-06-01T22:27:29;21.20;49.50
43320;DHT22;28914;48.722;9.332;2023-06-01T22:32:48;21.10;49.60
43320;DHT22;28914;48.722;9.332;2023-06-01T22:38:07;21.00;49.90
43320;DHT22;28914;48.722;9.332;2023-06-01T22:43:26;20.90;51.60
43320;DHT22;28914;48.722;9.332;2023-06-01T22:48:45;20.80;50.20
43320;DHT22;28914;48.722;9.332;2023-06-01T22:54:07;20.80;50.60
43320;DHT22;28914;48.722;9.332;2023-06-01T22:59:26;20.80;50.30
43320;DHT22;28914;48.722;9.332;2023-06-01T23:04:45;20.70;50.40
43320;DHT22;28914;48.722;9.332;2023-06-01T23:10:05;20.60;50.20
43320;DHT22;28914;48.722;9.332;2023-06-01T23:15:27;20.50;49.90
43320;DHT22;28914;48.722;9.332;2023-06-01T23:20:48;20.50;50.10
43320;DHT22;28914;48.722;9.332;2023-06-01T23:26:12;20.40;50.30
43320;DHT22;28914;48.722;9.332;2023-06-01T23:31:33;20.30;50.50
43320;DHT22;28914;48.722;9.332;2023-06-01T23:36:52;20.20;50.70
43320;DHT22;28914;48.722;9.332;2023-06-01T23:42:14;20.00;50.30
43320;DHT22;28914;48.722;9.332;2023-06-01T23:47:33;20.00;50.70
43320;DHT22;28914;48.722;9.332;2023-06-01T23:52:52;19.80;50.80
43320;DHT22;28914;48.722;9.332;2023-06-01T23:58:11;19.70;50.90
